createdAt,value
2022-10-19T00:00:48.301Z,12.07
2022-10-19T00:03:55.400Z,12.07
2022-10-19T00:06:58.380Z,12.06
2022-10-19T00:10:02.679Z,12.05
2022-10-19T00:13:06.122Z,12.07
2022-10-19T00:16:11.814Z,12.09
2022-10-19T00:19:17.891Z,12.04
2022-10-19T00:22:20.848Z,12.03
2022-10-19T00:25:25.271Z,12.04
2022-10-19T00:28:29.086Z,12.03
2022-10-19T00:31:32.510Z,12.06
2022-10-19T00:34:35.571Z,12.06
2022-10-19T00:37:38.552Z,12.12
2022-10-19T00:40:42.857Z,12.15
2022-10-19T00:43:55.817Z,12.15
2022-10-19T00:47:04.889Z,12.13
2022-10-19T00:50:09.944Z,12.15
2022-10-19T00:53:13.400Z,12.12
2022-10-19T00:56:18.566Z,12.16
2022-10-19T00:59:25.063Z,12.17
2022-10-19T01:02:28.113Z,12.19
2022-10-19T01:05:31.855Z,12.17
2022-10-19T01:08:35.065Z,12.18
2022-10-19T01:11:50.416Z,12.04
2022-10-19T01:15:07.599Z,12.09
2022-10-19T01:18:18.266Z,12.13
2022-10-19T01:21:24.737Z,12.13
2022-10-19T01:24:49.531Z,12.19
2022-10-19T01:28:07.262Z,12.20
2022-10-19T01:31:22.334Z,12.12
2022-10-19T01:34:32.230Z,12.10
2022-10-19T01:37:43.667Z,12.10
2022-10-19T01:40:56.767Z,12.08
2022-10-19T01:44:05.608Z,12.05
2022-10-19T01:47:16.240Z,12.12
2022-10-19T01:50:25.911Z,12.10
2022-10-19T01:53:32.087Z,12.05
2022-10-19T01:56:37.278Z,12.07
2022-10-19T01:59:41.047Z,12.13
2022-10-19T02:02:49.950Z,12.11
2022-10-19T02:05:54.128Z,12.12
2022-10-19T02:08:58.178Z,12.14
2022-10-19T02:12:05.138Z,12.13
2022-10-19T02:15:15.966Z,12.13
2022-10-19T02:18:26.243Z,12.10
2022-10-19T02:21:29.879Z,12.12
2022-10-19T02:24:33.097Z,12.08
2022-10-19T02:27:38.536Z,12.10
2022-10-19T02:30:42.402Z,12.04
2022-10-19T02:33:46.690Z,12.00
2022-10-19T02:36:49.827Z,11.96
2022-10-19T02:39:53.404Z,11.91
2022-10-19T02:43:02.796Z,11.91
2022-10-19T02:46:11.942Z,11.89
2022-10-19T02:49:16.847Z,11.88
2022-10-19T02:52:19.789Z,11.88
2022-10-19T02:55:22.805Z,11.91
2022-10-19T02:58:25.787Z,11.89
2022-10-19T03:01:28.919Z,11.91
2022-10-19T03:04:33.369Z,11.93
2022-10-19T03:07:37.015Z,11.94
2022-10-19T03:10:40.151Z,11.90
2022-10-19T03:13:43.616Z,11.90
2022-10-19T03:16:46.605Z,11.88
2022-10-19T03:19:50.829Z,11.83
2022-10-19T03:26:01.731Z,11.82
2022-10-19T03:29:05.639Z,11.81
2022-10-19T03:32:08.887Z,11.77
2022-10-19T03:35:13.107Z,11.72
2022-10-19T03:38:16.219Z,11.73
2022-10-19T03:41:20.134Z,11.66
2022-10-19T03:44:23.701Z,11.65
2022-10-19T03:47:26.623Z,11.64
2022-10-19T03:50:30.845Z,11.58
2022-10-19T03:53:34.225Z,11.60
2022-10-19T03:56:37.551Z,11.59
2022-10-19T03:59:40.612Z,11.66
2022-10-19T04:02:43.952Z,11.67
2022-10-19T04:05:48.309Z,11.61
2022-10-19T04:08:51.303Z,11.62
2022-10-19T04:11:54.227Z,11.63
2022-10-19T04:14:57.917Z,11.61
2022-10-19T04:18:01.030Z,11.58
2022-10-19T04:21:07.196Z,11.58
2022-10-19T04:24:14.079Z,11.59
2022-10-19T04:27:17.319Z,11.63
2022-10-19T04:30:20.281Z,11.60
2022-10-19T04:33:23.278Z,11.62
2022-10-19T04:36:28.012Z,11.64
2022-10-19T04:39:31.561Z,11.59
2022-10-19T04:42:34.648Z,11.59
2022-10-19T04:45:37.856Z,11.56
2022-10-19T04:48:42.814Z,11.59
2022-10-19T04:51:47.074Z,11.54
2022-10-19T04:54:49.974Z,11.55
2022-10-19T04:57:52.921Z,11.57
2022-10-19T05:00:55.917Z,11.56
2022-10-19T05:04:01.147Z,11.49
2022-10-19T05:07:05.398Z,11.50
2022-10-19T05:10:10.489Z,11.53
2022-10-19T05:13:13.390Z,11.54
2022-10-19T05:16:19.932Z,11.54
2022-10-19T05:19:22.848Z,11.53
2022-10-19T05:22:27.547Z,11.53
2022-10-19T05:25:30.579Z,11.52
2022-10-19T05:28:34.030Z,11.46
2022-10-19T05:31:38.290Z,11.37
2022-10-19T05:34:41.810Z,11.26
2022-10-19T05:37:46.066Z,11.21
2022-10-19T05:40:52.886Z,11.21
2022-10-19T05:43:59.931Z,11.12
2022-10-19T05:47:03.087Z,11.03
2022-10-19T05:50:06.968Z,11.00
2022-10-19T05:53:11.198Z,11.02
2022-10-19T05:56:16.966Z,11.08
2022-10-19T05:59:22.338Z,11.07
2022-10-19T06:02:25.395Z,11.09
2022-10-19T06:05:28.634Z,11.16
2022-10-19T06:08:33.183Z,11.17
2022-10-19T06:11:39.342Z,11.21
2022-10-19T06:14:42.896Z,11.22
2022-10-19T06:17:45.840Z,11.22
2022-10-19T06:20:48.733Z,11.25
2022-10-19T06:23:54.342Z,11.32
2022-10-19T06:26:57.306Z,11.31
2022-10-19T06:30:00.226Z,11.34
2022-10-19T06:36:13.963Z,11.38
2022-10-19T06:39:18.550Z,11.41
2022-10-19T06:42:21.512Z,11.44
2022-10-19T06:45:24.458Z,11.47
2022-10-19T06:48:27.390Z,11.47
2022-10-19T06:51:33.941Z,11.49
2022-10-19T06:54:38.186Z,11.53
2022-10-19T06:57:41.138Z,11.60
2022-10-19T07:00:44.091Z,11.59
2022-10-19T07:03:47.027Z,11.65
2022-10-19T07:06:49.980Z,11.65
2022-10-19T07:09:54.607Z,11.59
2022-10-19T07:12:57.623Z,11.68
2022-10-19T07:16:03.519Z,11.79
2022-10-19T07:19:06.533Z,11.83
2022-10-19T07:22:09.778Z,11.87
2022-10-19T07:25:14.169Z,11.85
2022-10-19T07:28:17.095Z,11.85
2022-10-19T07:31:24.278Z,11.88
2022-10-19T07:34:29.026Z,11.95
2022-10-19T07:37:32.679Z,12.00
2022-10-19T07:40:37.499Z,12.03
2022-10-19T07:43:42.351Z,12.10
2022-10-19T07:46:45.373Z,12.15
2022-10-19T07:49:48.448Z,12.10
2022-10-19T07:52:52.984Z,12.15
2022-10-19T07:55:57.614Z,12.18
2022-10-19T07:59:02.720Z,12.30
2022-10-19T08:02:07.459Z,12.34
2022-10-19T08:05:11.934Z,12.35
2022-10-19T08:08:15.289Z,12.38
2022-10-19T08:11:22.702Z,12.23
2022-10-19T08:14:26.163Z,12.30
2022-10-19T08:17:29.207Z,12.22
2022-10-19T08:20:32.222Z,12.41
2022-10-19T08:23:35.152Z,12.31
2022-10-19T08:26:42.447Z,12.20
2022-10-19T08:29:45.852Z,12.15
2022-10-19T08:32:48.754Z,12.30
2022-10-19T08:35:51.732Z,12.38
2022-10-19T08:38:54.700Z,12.40
2022-10-19T08:42:04.908Z,12.28
2022-10-19T08:45:28.507Z,12.27
2022-10-19T08:48:36.614Z,12.38
2022-10-19T08:51:42.840Z,12.51
2022-10-19T08:54:52.273Z,12.68
2022-10-19T08:58:07.008Z,12.74
2022-10-19T09:01:17.555Z,12.78
2022-10-19T09:04:25.365Z,12.75
2022-10-19T09:07:30.907Z,12.82
2022-10-19T09:10:37.259Z,12.91
2022-10-19T09:14:04.293Z,12.86
2022-10-19T09:17:14.913Z,12.71
2022-10-19T09:20:21.230Z,12.66
2022-10-19T09:23:31.133Z,12.90
2022-10-19T09:26:38.486Z,12.98
2022-10-19T09:29:46.297Z,12.89
2022-10-19T09:32:52.238Z,12.93
2022-10-19T09:35:57.548Z,12.99
2022-10-19T09:39:00.586Z,13.00
2022-10-19T09:42:11.908Z,13.10
2022-10-19T09:45:25.056Z,13.12
2022-10-19T09:48:33.189Z,13.33
2022-10-19T09:51:51.728Z,13.11
2022-10-19T09:55:03.504Z,13.04
2022-10-19T09:58:17.877Z,13.22
2022-10-19T10:01:41.744Z,13.34
2022-10-19T10:04:57.589Z,13.58
2022-10-19T10:08:00.627Z,13.41
2022-10-19T10:11:12.455Z,13.33
2022-10-19T10:14:21.620Z,13.21
2022-10-19T10:17:31.467Z,13.27
2022-10-19T10:20:35.006Z,13.17
2022-10-19T10:23:38.263Z,13.23
2022-10-19T10:26:45.646Z,13.73
2022-10-19T10:33:15.907Z,14.17
2022-10-19T10:36:31.238Z,13.93
2022-10-19T10:39:41.018Z,13.38
2022-10-19T10:42:46.708Z,13.76
2022-10-19T10:45:53.132Z,14.16
2022-10-19T10:49:00.719Z,14.73
2022-10-19T10:52:08.168Z,15.15
2022-10-19T10:55:19.300Z,15.10
2022-10-19T10:58:35.643Z,14.73
2022-10-19T11:01:43.740Z,14.60
2022-10-19T11:04:52.632Z,14.50
2022-10-19T11:08:05.226Z,14.88
2022-10-19T11:11:16.822Z,15.01
2022-10-19T11:14:40.238Z,15.27
2022-10-19T11:17:55.448Z,15.23
2022-10-19T11:21:08.226Z,15.35
2022-10-19T11:24:21.240Z,15.80
2022-10-19T11:27:38.938Z,16.22
2022-10-19T11:30:56.657Z,16.57
2022-10-19T11:34:09.104Z,16.49
2022-10-19T11:37:25.463Z,16.52
2022-10-19T11:40:45.837Z,15.96
2022-10-19T11:44:20.168Z,15.53
2022-10-19T11:47:42.105Z,15.18
2022-10-19T11:50:54.468Z,15.27
2022-10-19T11:54:20.079Z,15.13
2022-10-19T11:57:27.386Z,15.02
2022-10-19T12:00:40.066Z,14.92
2022-10-19T12:04:14.266Z,14.83
2022-10-19T12:07:46.538Z,14.47
2022-10-19T12:11:04.661Z,14.50
2022-10-19T12:14:13.871Z,14.99
2022-10-19T12:17:25.619Z,15.89
2022-10-19T12:20:35.936Z,15.97
2022-10-19T12:23:43.026Z,16.19
2022-10-19T12:26:48.706Z,15.64
2022-10-19T12:29:52.862Z,15.34
2022-10-19T12:33:15.492Z,15.36
2022-10-19T12:36:31.351Z,15.36
2022-10-19T12:39:40.743Z,15.34
2022-10-19T12:42:57.131Z,15.27
2022-10-19T12:46:14.538Z,15.70
2022-10-19T12:49:48.839Z,16.01
2022-10-19T12:52:52.810Z,16.05
2022-10-19T12:56:01.913Z,16.13
2022-10-19T12:59:07.777Z,16.28
2022-10-19T13:02:30.428Z,16.53
2022-10-19T13:05:35.682Z,16.88
2022-10-19T13:08:44.755Z,16.40
2022-10-19T13:12:28.933Z,16.00
2022-10-19T13:16:00.419Z,15.51
2022-10-19T13:19:09.878Z,15.78
2022-10-19T13:22:29.280Z,15.85
2022-10-19T13:25:33.528Z,15.83
2022-10-19T13:28:38.617Z,15.70
2022-10-19T13:31:42.896Z,15.67
2022-10-19T13:34:46.939Z,16.22
2022-10-19T13:38:32.070Z,16.14
2022-10-19T13:41:50.113Z,16.21
2022-10-19T13:44:54.694Z,16.38
2022-10-19T13:48:10.251Z,16.78
2022-10-19T13:51:25.599Z,17.05
2022-10-19T13:54:51.441Z,16.88
2022-10-19T13:58:21.030Z,16.89
2022-10-19T14:01:40.535Z,16.88
2022-10-19T14:04:53.400Z,17.04
2022-10-19T14:08:09.768Z,17.35
2022-10-19T14:11:17.104Z,17.20
2022-10-19T14:14:23.347Z,16.51
2022-10-19T14:17:30.068Z,16.29
2022-10-19T14:20:37.309Z,16.11
2022-10-19T14:23:41.396Z,15.86
2022-10-19T14:26:44.466Z,16.18
2022-10-19T14:29:50.907Z,16.00
2022-10-19T14:32:59.402Z,15.75
2022-10-19T14:36:08.453Z,15.69
2022-10-19T14:39:25.246Z,15.55
2022-10-19T14:42:39.855Z,15.34
2022-10-19T14:45:42.893Z,15.05
2022-10-19T14:48:48.874Z,14.83
2022-10-19T14:51:57.342Z,14.83
2022-10-19T14:55:06.393Z,14.76
2022-10-19T14:58:17.574Z,14.77
2022-10-19T15:01:21.575Z,14.94
2022-10-19T15:04:28.767Z,14.94
2022-10-19T15:07:38.654Z,14.74
2022-10-19T15:10:45.672Z,14.61
2022-10-19T15:13:51.803Z,14.32
2022-10-19T15:16:57.953Z,14.22
2022-10-19T15:20:01.893Z,14.06
2022-10-19T15:23:42.419Z,14.02
2022-10-19T15:27:06.569Z,13.96
2022-10-19T15:30:28.426Z,13.93
2022-10-19T15:33:38.415Z,13.92
2022-10-19T15:36:56.425Z,13.69
2022-10-19T15:40:10.685Z,13.65
2022-10-19T15:43:45.364Z,13.54
2022-10-19T15:47:20.104Z,13.50
2022-10-19T15:50:38.101Z,13.42
2022-10-19T15:53:41.073Z,13.29
2022-10-19T15:56:47.915Z,13.07
2022-10-19T15:59:51.214Z,13.08
2022-10-19T16:02:54.132Z,12.95
2022-10-19T16:05:57.331Z,12.84
2022-10-19T16:09:01.639Z,12.80
2022-10-19T16:12:06.180Z,12.63
2022-10-19T16:15:12.953Z,12.48
2022-10-19T16:18:15.913Z,12.40
2022-10-19T16:21:20.649Z,12.32
2022-10-19T16:24:23.614Z,12.22
2022-10-19T16:27:27.964Z,12.09
2022-10-19T16:30:30.995Z,11.92
2022-10-19T16:33:34.261Z,11.80
2022-10-19T16:36:37.186Z,11.72
2022-10-19T16:39:40.117Z,11.61
2022-10-19T16:42:44.347Z,11.51
2022-10-19T16:45:47.322Z,11.38
2022-10-19T16:48:50.246Z,11.29
2022-10-19T16:51:57.204Z,11.17
2022-10-19T16:55:00.955Z,11.08
2022-10-19T16:58:05.311Z,10.97
2022-10-19T17:01:08.974Z,10.86
2022-10-19T17:04:12.713Z,10.82
2022-10-19T17:07:16.022Z,10.71
2022-10-19T17:10:19.120Z,10.66
2022-10-19T17:13:23.439Z,10.61
2022-10-19T17:16:29.523Z,10.50
2022-10-19T17:19:32.577Z,10.42
2022-10-19T17:22:35.851Z,10.33
2022-10-19T17:25:38.917Z,10.25
2022-10-19T17:28:43.818Z,10.17
2022-10-19T17:31:48.618Z,10.07
2022-10-19T17:34:51.699Z,10.06
2022-10-19T17:37:54.637Z,9.96
2022-10-19T17:40:57.699Z,9.79
2022-10-19T17:44:03.855Z,9.82
2022-10-19T17:47:07.667Z,9.74
2022-10-19T17:50:11.225Z,9.70
2022-10-19T17:53:14.316Z,9.60
2022-10-19T17:56:20.736Z,9.58
2022-10-19T17:59:30.588Z,9.51
2022-10-19T18:02:38.417Z,9.47
2022-10-19T18:05:41.402Z,9.44
2022-10-19T18:08:46.505Z,9.38
2022-10-19T18:11:49.557Z,9.35
2022-10-19T18:14:54.071Z,9.27
2022-10-19T18:17:57.078Z,9.17
2022-10-19T18:21:00.452Z,9.14
2022-10-19T18:24:05.057Z,9.05
2022-10-19T18:27:08.220Z,8.97
2022-10-19T18:30:12.983Z,8.92
2022-10-19T18:33:16.119Z,8.88
2022-10-19T18:36:19.117Z,8.85
2022-10-19T18:39:23.981Z,8.81
2022-10-19T18:42:26.976Z,8.73
2022-10-19T18:45:31.470Z,8.70
2022-10-19T18:48:38.128Z,8.66
2022-10-19T18:51:41.146Z,8.60
2022-10-19T18:54:44.104Z,8.44
2022-10-19T18:57:47.029Z,8.42
2022-10-19T19:00:51.338Z,8.40
2022-10-19T19:03:57.715Z,8.43
2022-10-19T19:07:00.655Z,8.38
2022-10-19T19:10:03.587Z,8.35
2022-10-19T19:13:07.983Z,8.32
2022-10-19T19:16:12.519Z,8.33
2022-10-19T19:19:17.776Z,8.29
2022-10-19T19:22:20.701Z,8.26
2022-10-19T19:25:23.707Z,8.31
2022-10-19T19:28:26.692Z,8.35
2022-10-19T19:31:31.527Z,8.28
2022-10-19T19:34:34.433Z,8.23
2022-10-19T19:37:37.656Z,8.23
2022-10-19T19:40:42.222Z,8.27
2022-10-19T19:43:45.295Z,8.30
2022-10-19T19:46:49.927Z,8.38
2022-10-19T19:49:52.899Z,8.47
2022-10-19T19:52:55.850Z,8.43
2022-10-19T19:55:58.953Z,8.47
2022-10-19T19:59:04.333Z,8.40
2022-10-19T20:02:10.043Z,8.46
2022-10-19T20:05:13.096Z,8.43
2022-10-19T20:08:16.001Z,8.24
2022-10-19T20:11:19.260Z,8.25
2022-10-19T20:14:22.266Z,8.23
2022-10-19T20:17:26.762Z,8.24
2022-10-19T20:20:30.114Z,8.18
2022-10-19T20:23:34.345Z,8.25
2022-10-19T20:26:37.433Z,8.23
2022-10-19T20:29:40.403Z,8.25
2022-10-19T20:32:44.703Z,8.22
2022-10-19T20:35:47.656Z,8.08
2022-10-19T20:38:53.046Z,8.02
2022-10-19T20:41:56.364Z,7.95
2022-10-19T20:44:59.287Z,7.99
2022-10-19T20:48:03.661Z,7.97
2022-10-19T20:51:13.022Z,8.01
2022-10-19T20:54:16.226Z,8.04
2022-10-19T20:57:19.178Z,8.01
2022-10-19T21:00:22.108Z,7.91
2022-10-19T21:03:26.396Z,7.73
2022-10-19T21:06:31.732Z,7.63
2022-10-19T21:09:34.718Z,7.52
2022-10-19T21:12:37.975Z,7.44
2022-10-19T21:15:41.115Z,7.30
2022-10-19T21:18:47.391Z,7.32
2022-10-19T21:21:55.297Z,7.34
2022-10-19T21:24:58.541Z,7.22
2022-10-19T21:28:01.509Z,7.37
2022-10-19T21:31:10.319Z,7.42
2022-10-19T21:34:16.916Z,7.39
2022-10-19T21:37:19.937Z,7.34
2022-10-19T21:40:22.917Z,7.28
2022-10-19T21:43:25.886Z,7.28
2022-10-19T21:46:29.389Z,7.16
2022-10-19T21:49:33.780Z,7.19
2022-10-19T21:52:36.710Z,7.09
2022-10-19T21:55:39.627Z,6.94
2022-10-19T21:58:46.307Z,6.83
2022-10-19T22:01:49.381Z,6.81
2022-10-19T22:04:53.651Z,6.75
2022-10-19T22:07:56.714Z,6.73
2022-10-19T22:10:59.929Z,6.68
2022-10-19T22:14:05.375Z,6.65
2022-10-19T22:17:08.568Z,6.59
2022-10-19T22:20:13.165Z,6.58
2022-10-19T22:23:16.582Z,6.59
2022-10-19T22:26:22.323Z,6.51
2022-10-19T22:29:25.304Z,6.50
2022-10-19T22:32:28.270Z,6.46
2022-10-19T22:35:32.567Z,6.43
2022-10-19T22:38:36.603Z,6.45
2022-10-19T22:41:39.792Z,6.38
2022-10-19T22:44:42.905Z,6.45
2022-10-19T22:47:46.003Z,6.56
2022-10-19T22:50:54.001Z,6.56
2022-10-19T22:53:57.270Z,6.52
2022-10-19T22:57:00.507Z,6.59
2022-10-19T23:00:04.537Z,6.60
2022-10-19T23:03:07.655Z,6.64
2022-10-19T23:06:14.810Z,6.65
2022-10-19T23:09:17.877Z,6.64
2022-10-19T23:12:21.014Z,6.60
2022-10-19T23:15:24.168Z,6.50
2022-10-19T23:18:27.366Z,6.46
2022-10-19T23:21:31.764Z,6.39
2022-10-19T23:24:35.008Z,6.42
2022-10-19T23:27:38.386Z,6.37
2022-10-19T23:30:41.845Z,6.40
2022-10-19T23:33:45.849Z,6.38
2022-10-19T23:36:50.273Z,6.39
2022-10-19T23:39:53.307Z,6.29
2022-10-19T23:42:56.411Z,6.32
2022-10-19T23:45:59.457Z,6.24
2022-10-19T23:49:02.417Z,6.18
2022-10-19T23:52:11.327Z,6.13
2022-10-19T23:55:15.301Z,6.06
2022-10-19T23:58:26.540Z,6.14
